sensor_id;sensor_type;location;lat;lon;timestamp;P1;durP1;ratioP1;P2;durP2;ratioP2
42742;SDS011;28397;44.552;-0.848;2022-11-03T00:00:55;9.35;;;3.83;;
42742;SDS011;28397;44.552;-0.848;2022-11-03T00:03:21;9.57;;;3.80;;
42742;SDS011;28397;44.552;-0.848;2022-11-03T00:05:46;7.78;;;3.72;;
42742;SDS011;28397;44.552;-0.848;2022-11-03T00:08:31;8.68;;;3.60;;
42742;SDS011;28397;44.552;-0.848;2022-11-03T00:11:01;6.95;;;3.42;;
42742;SDS011;28397;44.552;-0.848;2022-11-03T00:13:45;5.78;;;2.95;;
42742;SDS011;28397;44.552;-0.848;2022-11-03T00:16:11;6.70;;;2.85;;
42742;SDS011;28397;44.552;-0.848;2022-11-03T00:18:37;4.75;;;2.78;;
42742;SDS011;28397;44.552;-0.848;2022-11-03T00:21:10;5.22;;;2.70;;
42742;SDS011;28397;44.552;-0.848;2022-11-03T00:23:38;7.35;;;2.95;;
42742;SDS011;28397;44.552;-0.848;2022-11-03T00:28:41;7.30;;;2.83;;
42742;SDS011;28397;44.552;-0.848;2022-11-03T00:31:10;6.25;;;2.70;;
42742;SDS011;28397;44.552;-0.848;2022-11-03T00:33:36;7.22;;;2.92;;
42742;SDS011;28397;44.552;-0.848;2022-11-03T00:36:03;4.60;;;2.60;;
42742;SDS011;28397;44.552;-0.848;2022-11-03T00:38:30;6.60;;;2.88;;
42742;SDS011;28397;44.552;-0.848;2022-11-03T00:40:57;7.20;;;2.90;;
42742;SDS011;28397;44.552;-0.848;2022-11-03T00:43:24;6.93;;;2.97;;
42742;SDS011;28397;44.552;-0.848;2022-11-03T00:45:52;4.70;;;2.60;;
42742;SDS011;28397;44.552;-0.848;2022-11-03T00:48:18;8.35;;;3.00;;
42742;SDS011;28397;44.552;-0.848;2022-11-03T00:53:25;5.97;;;2.75;;
42742;SDS011;28397;44.552;-0.848;2022-11-03T00:55:51;5.35;;;2.97;;
42742;SDS011;28397;44.552;-0.848;2022-11-03T00:58:16;6.75;;;2.80;;
42742;SDS011;28397;44.552;-0.848;2022-11-03T01:00:42;5.95;;;2.60;;
42742;SDS011;28397;44.552;-0.848;2022-11-03T01:03:08;7.00;;;3.13;;
42742;SDS011;28397;44.552;-0.848;2022-11-03T01:05:33;5.70;;;2.97;;
42742;SDS011;28397;44.552;-0.848;2022-11-03T01:10:43;7.50;;;2.80;;
42742;SDS011;28397;44.552;-0.848;2022-11-03T01:13:28;6.57;;;2.42;;
42742;SDS011;28397;44.552;-0.848;2022-11-03T01:15:57;5.15;;;2.42;;
42742;SDS011;28397;44.552;-0.848;2022-11-03T01:18:23;4.93;;;2.65;;
42742;SDS011;28397;44.552;-0.848;2022-11-03T01:20:55;7.65;;;2.80;;
42742;SDS011;28397;44.552;-0.848;2022-11-03T01:23:22;7.10;;;2.88;;
42742;SDS011;28397;44.552;-0.848;2022-11-03T01:25:48;5.57;;;2.40;;
42742;SDS011;28397;44.552;-0.848;2022-11-03T01:28:14;7.10;;;3.13;;
42742;SDS011;28397;44.552;-0.848;2022-11-03T01:30:40;6.07;;;2.50;;
42742;SDS011;28397;44.552;-0.848;2022-11-03T01:33:06;9.13;;;2.80;;
42742;SDS011;28397;44.552;-0.848;2022-11-03T01:35:31;10.20;;;2.92;;
42742;SDS011;28397;44.552;-0.848;2022-11-03T01:37:57;6.03;;;2.85;;
42742;SDS011;28397;44.552;-0.848;2022-11-03T01:40:23;6.75;;;2.80;;
42742;SDS011;28397;44.552;-0.848;2022-11-03T01:42:49;6.88;;;2.55;;
42742;SDS011;28397;44.552;-0.848;2022-11-03T01:45:14;7.70;;;2.88;;
42742;SDS011;28397;44.552;-0.848;2022-11-03T01:47:41;5.18;;;2.78;;
42742;SDS011;28397;44.552;-0.848;2022-11-03T01:50:09;8.38;;;3.00;;
42742;SDS011;28397;44.552;-0.848;2022-11-03T01:52:51;6.70;;;2.72;;
42742;SDS011;28397;44.552;-0.848;2022-11-03T01:55:22;6.25;;;2.83;;
42742;SDS011;28397;44.552;-0.848;2022-11-03T01:57:53;6.82;;;2.85;;
42742;SDS011;28397;44.552;-0.848;2022-11-03T02:00:24;7.53;;;2.90;;
42742;SDS011;28397;44.552;-0.848;2022-11-03T02:02:50;6.45;;;3.10;;
42742;SDS011;28397;44.552;-0.848;2022-11-03T02:05:16;7.03;;;2.92;;
42742;SDS011;28397;44.552;-0.848;2022-11-03T02:10:15;7.43;;;2.88;;
42742;SDS011;28397;44.552;-0.848;2022-11-03T02:12:41;6.38;;;2.80;;
42742;SDS011;28397;44.552;-0.848;2022-11-03T02:15:09;5.22;;;2.58;;
42742;SDS011;28397;44.552;-0.848;2022-11-03T02:17:37;8.68;;;2.70;;
42742;SDS011;28397;44.552;-0.848;2022-11-03T02:28:02;6.15;;;2.60;;
42742;SDS011;28397;44.552;-0.848;2022-11-03T02:30:32;6.22;;;2.63;;
42742;SDS011;28397;44.552;-0.848;2022-11-03T02:33:09;6.97;;;3.00;;
42742;SDS011;28397;44.552;-0.848;2022-11-03T02:35:44;8.30;;;2.90;;
42742;SDS011;28397;44.552;-0.848;2022-11-03T02:38:32;8.05;;;2.72;;
42742;SDS011;28397;44.552;-0.848;2022-11-03T02:41:02;9.70;;;2.70;;
42742;SDS011;28397;44.552;-0.848;2022-11-03T02:43:32;6.00;;;2.60;;
42742;SDS011;28397;44.552;-0.848;2022-11-03T02:45:58;6.40;;;2.40;;
42742;SDS011;28397;44.552;-0.848;2022-11-03T02:48:25;6.00;;;2.50;;
42742;SDS011;28397;44.552;-0.848;2022-11-03T02:50:51;4.57;;;2.30;;
42742;SDS011;28397;44.552;-0.848;2022-11-03T02:53:19;4.18;;;2.20;;
42742;SDS011;28397;44.552;-0.848;2022-11-03T02:58:27;7.63;;;2.50;;
42742;SDS011;28397;44.552;-0.848;2022-11-03T03:01:23;7.85;;;2.70;;
42742;SDS011;28397;44.552;-0.848;2022-11-03T03:04:05;9.43;;;3.05;;
42742;SDS011;28397;44.552;-0.848;2022-11-03T03:06:41;6.43;;;2.55;;
42742;SDS011;28397;44.552;-0.848;2022-11-03T03:09:13;5.65;;;2.45;;
42742;SDS011;28397;44.552;-0.848;2022-11-03T03:11:48;6.43;;;3.10;;
42742;SDS011;28397;44.552;-0.848;2022-11-03T03:14:18;4.95;;;2.40;;
42742;SDS011;28397;44.552;-0.848;2022-11-03T03:17:11;7.05;;;2.58;;
42742;SDS011;28397;44.552;-0.848;2022-11-03T03:22:46;6.13;;;2.53;;
42742;SDS011;28397;44.552;-0.848;2022-11-03T03:25:28;7.47;;;2.50;;
42742;SDS011;28397;44.552;-0.848;2022-11-03T03:28:04;6.25;;;2.70;;
42742;SDS011;28397;44.552;-0.848;2022-11-03T03:30:53;5.43;;;2.70;;
42742;SDS011;28397;44.552;-0.848;2022-11-03T03:33:21;6.88;;;2.53;;
42742;SDS011;28397;44.552;-0.848;2022-11-03T03:35:49;6.20;;;2.63;;
42742;SDS011;28397;44.552;-0.848;2022-11-03T03:38:18;7.00;;;2.72;;
42742;SDS011;28397;44.552;-0.848;2022-11-03T03:40:54;6.50;;;2.75;;
42742;SDS011;28397;44.552;-0.848;2022-11-03T03:43:23;7.80;;;2.78;;
42742;SDS011;28397;44.552;-0.848;2022-11-03T03:45:53;5.82;;;2.78;;
42742;SDS011;28397;44.552;-0.848;2022-11-03T03:48:24;6.43;;;2.95;;
42742;SDS011;28397;44.552;-0.848;2022-11-03T03:50:50;8.43;;;2.80;;
42742;SDS011;28397;44.552;-0.848;2022-11-03T03:53:17;7.68;;;3.00;;
42742;SDS011;28397;44.552;-0.848;2022-11-03T03:55:46;5.53;;;2.80;;
42742;SDS011;28397;44.552;-0.848;2022-11-03T03:58:14;5.18;;;2.90;;
42742;SDS011;28397;44.552;-0.848;2022-11-03T04:00:40;6.43;;;3.00;;
42742;SDS011;28397;44.552;-0.848;2022-11-03T04:03:20;4.85;;;2.38;;
42742;SDS011;28397;44.552;-0.848;2022-11-03T04:05:47;8.57;;;2.85;;
42742;SDS011;28397;44.552;-0.848;2022-11-03T04:08:14;5.95;;;2.80;;
42742;SDS011;28397;44.552;-0.848;2022-11-03T04:10:41;5.85;;;2.83;;
42742;SDS011;28397;44.552;-0.848;2022-11-03T04:13:30;7.25;;;2.90;;
42742;SDS011;28397;44.552;-0.848;2022-11-03T04:16:14;7.93;;;2.70;;
42742;SDS011;28397;44.552;-0.848;2022-11-03T04:18:59;10.90;;;2.92;;
42742;SDS011;28397;44.552;-0.848;2022-11-03T04:24:27;6.63;;;2.60;;
42742;SDS011;28397;44.552;-0.848;2022-11-03T04:26:54;4.20;;;2.08;;
42742;SDS011;28397;44.552;-0.848;2022-11-03T04:29:26;7.00;;;2.40;;
42742;SDS011;28397;44.552;-0.848;2022-11-03T04:31:52;5.68;;;2.67;;
42742;SDS011;28397;44.552;-0.848;2022-11-03T04:34:17;6.05;;;2.78;;
42742;SDS011;28397;44.552;-0.848;2022-11-03T04:36:43;7.30;;;2.67;;
42742;SDS011;28397;44.552;-0.848;2022-11-03T04:39:14;5.72;;;2.50;;
42742;SDS011;28397;44.552;-0.848;2022-11-03T04:41:42;6.47;;;2.42;;
42742;SDS011;28397;44.552;-0.848;2022-11-03T04:44:14;8.27;;;2.65;;
42742;SDS011;28397;44.552;-0.848;2022-11-03T04:46:41;7.90;;;2.65;;
42742;SDS011;28397;44.552;-0.848;2022-11-03T04:49:09;6.95;;;2.58;;
42742;SDS011;28397;44.552;-0.848;2022-11-03T04:51:40;3.53;;;2.22;;
42742;SDS011;28397;44.552;-0.848;2022-11-03T04:54:14;5.80;;;2.63;;
42742;SDS011;28397;44.552;-0.848;2022-11-03T04:56:43;6.60;;;2.80;;
42742;SDS011;28397;44.552;-0.848;2022-11-03T04:59:12;7.63;;;2.80;;
42742;SDS011;28397;44.552;-0.848;2022-11-03T05:01:39;7.07;;;2.30;;
42742;SDS011;28397;44.552;-0.848;2022-11-03T05:04:10;8.77;;;2.78;;
42742;SDS011;28397;44.552;-0.848;2022-11-03T05:06:40;6.40;;;2.40;;
42742;SDS011;28397;44.552;-0.848;2022-11-03T05:09:13;4.97;;;2.25;;
42742;SDS011;28397;44.552;-0.848;2022-11-03T05:11:43;3.90;;;2.20;;
42742;SDS011;28397;44.552;-0.848;2022-11-03T05:14:14;4.65;;;2.40;;
42742;SDS011;28397;44.552;-0.848;2022-11-03T05:16:49;4.95;;;2.33;;
42742;SDS011;28397;44.552;-0.848;2022-11-03T05:19:27;5.35;;;2.63;;
42742;SDS011;28397;44.552;-0.848;2022-11-03T05:21:57;5.97;;;2.63;;
42742;SDS011;28397;44.552;-0.848;2022-11-03T05:24:24;4.90;;;2.30;;
42742;SDS011;28397;44.552;-0.848;2022-11-03T05:26:51;5.68;;;2.58;;
42742;SDS011;28397;44.552;-0.848;2022-11-03T05:29:38;8.52;;;2.40;;
42742;SDS011;28397;44.552;-0.848;2022-11-03T05:32:09;6.78;;;2.60;;
42742;SDS011;28397;44.552;-0.848;2022-11-03T05:34:40;6.35;;;2.53;;
42742;SDS011;28397;44.552;-0.848;2022-11-03T05:39:44;6.60;;;2.70;;
42742;SDS011;28397;44.552;-0.848;2022-11-03T05:44:46;6.72;;;3.10;;
42742;SDS011;28397;44.552;-0.848;2022-11-03T05:47:22;5.30;;;2.45;;
42742;SDS011;28397;44.552;-0.848;2022-11-03T05:49:51;6.10;;;2.58;;
42742;SDS011;28397;44.552;-0.848;2022-11-03T05:52:25;5.18;;;2.47;;
42742;SDS011;28397;44.552;-0.848;2022-11-03T05:54:55;6.55;;;2.40;;
42742;SDS011;28397;44.552;-0.848;2022-11-03T05:57:23;4.68;;;2.50;;
42742;SDS011;28397;44.552;-0.848;2022-11-03T05:59:52;9.35;;;2.85;;
42742;SDS011;28397;44.552;-0.848;2022-11-03T06:05:14;5.55;;;2.60;;
42742;SDS011;28397;44.552;-0.848;2022-11-03T06:07:45;8.65;;;2.35;;
42742;SDS011;28397;44.552;-0.848;2022-11-03T06:12:55;5.85;;;2.40;;
42742;SDS011;28397;44.552;-0.848;2022-11-03T06:15:38;6.47;;;2.50;;
42742;SDS011;28397;44.552;-0.848;2022-11-03T06:18:15;6.35;;;2.80;;
42742;SDS011;28397;44.552;-0.848;2022-11-03T06:20:46;6.72;;;2.60;;
42742;SDS011;28397;44.552;-0.848;2022-11-03T06:23:20;8.43;;;2.78;;
42742;SDS011;28397;44.552;-0.848;2022-11-03T06:25:46;6.07;;;2.90;;
42742;SDS011;28397;44.552;-0.848;2022-11-03T06:28:19;5.93;;;2.80;;
42742;SDS011;28397;44.552;-0.848;2022-11-03T06:30:56;5.22;;;2.80;;
42742;SDS011;28397;44.552;-0.848;2022-11-03T06:33:25;6.72;;;2.90;;
42742;SDS011;28397;44.552;-0.848;2022-11-03T06:35:53;5.97;;;2.78;;
42742;SDS011;28397;44.552;-0.848;2022-11-03T06:38:24;5.72;;;2.72;;
42742;SDS011;28397;44.552;-0.848;2022-11-03T06:40:54;5.78;;;2.70;;
42742;SDS011;28397;44.552;-0.848;2022-11-03T06:48:49;7.53;;;2.83;;
42742;SDS011;28397;44.552;-0.848;2022-11-03T06:51:18;5.00;;;2.65;;
42742;SDS011;28397;44.552;-0.848;2022-11-03T06:53:46;5.25;;;2.83;;
42742;SDS011;28397;44.552;-0.848;2022-11-03T06:56:14;5.07;;;2.83;;
42742;SDS011;28397;44.552;-0.848;2022-11-03T06:58:44;4.72;;;2.60;;
42742;SDS011;28397;44.552;-0.848;2022-11-03T07:01:23;5.03;;;2.78;;
42742;SDS011;28397;44.552;-0.848;2022-11-03T07:04:10;5.57;;;2.75;;
42742;SDS011;28397;44.552;-0.848;2022-11-03T07:06:44;6.93;;;2.70;;
42742;SDS011;28397;44.552;-0.848;2022-11-03T07:09:13;4.63;;;2.80;;
42742;SDS011;28397;44.552;-0.848;2022-11-03T07:11:44;5.20;;;3.00;;
42742;SDS011;28397;44.552;-0.848;2022-11-03T07:14:11;8.57;;;3.65;;
42742;SDS011;28397;44.552;-0.848;2022-11-03T07:16:53;6.60;;;3.20;;
42742;SDS011;28397;44.552;-0.848;2022-11-03T07:29:50;5.50;;;3.20;;
42742;SDS011;28397;44.552;-0.848;2022-11-03T07:32:21;6.53;;;3.53;;
42742;SDS011;28397;44.552;-0.848;2022-11-03T07:35:02;10.73;;;3.60;;
42742;SDS011;28397;44.552;-0.848;2022-11-03T07:37:46;6.65;;;3.35;;
42742;SDS011;28397;44.552;-0.848;2022-11-03T07:40:15;7.03;;;3.70;;
42742;SDS011;28397;44.552;-0.848;2022-11-03T07:42:49;8.90;;;4.10;;
42742;SDS011;28397;44.552;-0.848;2022-11-03T07:50:42;9.77;;;4.03;;
42742;SDS011;28397;44.552;-0.848;2022-11-03T07:53:10;7.85;;;3.45;;
42742;SDS011;28397;44.552;-0.848;2022-11-03T07:55:39;6.22;;;3.78;;
42742;SDS011;28397;44.552;-0.848;2022-11-03T07:58:13;7.35;;;3.88;;
42742;SDS011;28397;44.552;-0.848;2022-11-03T08:00:45;7.03;;;3.78;;
42742;SDS011;28397;44.552;-0.848;2022-11-03T08:03:15;6.30;;;3.25;;
42742;SDS011;28397;44.552;-0.848;2022-11-03T08:06:00;3.08;;;2.75;;
42742;SDS011;28397;44.552;-0.848;2022-11-03T08:08:26;5.68;;;3.00;;
42742;SDS011;28397;44.552;-0.848;2022-11-03T08:10:51;3.60;;;2.80;;
42742;SDS011;28397;44.552;-0.848;2022-11-03T08:13:17;5.95;;;3.00;;
42742;SDS011;28397;44.552;-0.848;2022-11-03T08:15:43;5.65;;;2.97;;
42742;SDS011;28397;44.552;-0.848;2022-11-03T08:18:08;5.05;;;3.10;;
42742;SDS011;28397;44.552;-0.848;2022-11-03T08:20:34;5.55;;;3.42;;
42742;SDS011;28397;44.552;-0.848;2022-11-03T08:23:00;5.68;;;3.15;;
42742;SDS011;28397;44.552;-0.848;2022-11-03T08:25:25;3.92;;;3.10;;
42742;SDS011;28397;44.552;-0.848;2022-11-03T08:27:51;5.20;;;3.35;;
42742;SDS011;28397;44.552;-0.848;2022-11-03T08:30:17;7.38;;;3.30;;
42742;SDS011;28397;44.552;-0.848;2022-11-03T08:32:43;5.30;;;3.03;;
42742;SDS011;28397;44.552;-0.848;2022-11-03T08:35:08;4.20;;;2.67;;
42742;SDS011;28397;44.552;-0.848;2022-11-03T08:37:34;10.82;;;8.75;;
42742;SDS011;28397;44.552;-0.848;2022-11-03T08:40:00;8.55;;;5.68;;
42742;SDS011;28397;44.552;-0.848;2022-11-03T08:42:25;3.90;;;2.88;;
42742;SDS011;28397;44.552;-0.848;2022-11-03T08:44:51;5.97;;;3.10;;
42742;SDS011;28397;44.552;-0.848;2022-11-03T08:47:17;6.38;;;3.30;;
42742;SDS011;28397;44.552;-0.848;2022-11-03T08:49:42;4.22;;;3.17;;
42742;SDS011;28397;44.552;-0.848;2022-11-03T08:52:08;8.57;;;6.03;;
42742;SDS011;28397;44.552;-0.848;2022-11-03T08:54:33;6.45;;;3.50;;
42742;SDS011;28397;44.552;-0.848;2022-11-03T08:56:59;4.57;;;3.45;;
42742;SDS011;28397;44.552;-0.848;2022-11-03T08:59:25;4.55;;;2.85;;
42742;SDS011;28397;44.552;-0.848;2022-11-03T09:01:50;5.10;;;3.22;;
42742;SDS011;28397;44.552;-0.848;2022-11-03T09:04:16;5.70;;;3.00;;
42742;SDS011;28397;44.552;-0.848;2022-11-03T09:06:42;4.18;;;3.10;;
42742;SDS011;28397;44.552;-0.848;2022-11-03T09:09:07;4.57;;;3.00;;
42742;SDS011;28397;44.552;-0.848;2022-11-03T09:11:33;5.88;;;3.10;;
42742;SDS011;28397;44.552;-0.848;2022-11-03T09:13:59;8.23;;;4.35;;
42742;SDS011;28397;44.552;-0.848;2022-11-03T09:16:25;5.68;;;2.95;;
42742;SDS011;28397;44.552;-0.848;2022-11-03T09:18:51;4.90;;;3.15;;
42742;SDS011;28397;44.552;-0.848;2022-11-03T09:21:17;12.95;;;10.27;;
42742;SDS011;28397;44.552;-0.848;2022-11-03T09:23:43;7.47;;;5.43;;
42742;SDS011;28397;44.552;-0.848;2022-11-03T09:26:08;4.82;;;3.90;;
42742;SDS011;28397;44.552;-0.848;2022-11-03T09:28:34;10.15;;;9.13;;
42742;SDS011;28397;44.552;-0.848;2022-11-03T09:31:00;8.07;;;5.07;;
42742;SDS011;28397;44.552;-0.848;2022-11-03T09:33:26;7.25;;;3.60;;
42742;SDS011;28397;44.552;-0.848;2022-11-03T09:35:52;6.25;;;3.20;;
42742;SDS011;28397;44.552;-0.848;2022-11-03T09:38:18;6.22;;;3.20;;
42742;SDS011;28397;44.552;-0.848;2022-11-03T09:40:43;5.97;;;3.47;;
42742;SDS011;28397;44.552;-0.848;2022-11-03T09:43:09;7.65;;;3.60;;
42742;SDS011;28397;44.552;-0.848;2022-11-03T09:45:36;4.22;;;3.50;;
42742;SDS011;28397;44.552;-0.848;2022-11-03T09:48:03;5.65;;;4.60;;
42742;SDS011;28397;44.552;-0.848;2022-11-03T09:50:29;4.70;;;3.70;;
42742;SDS011;28397;44.552;-0.848;2022-11-03T09:52:56;6.65;;;4.38;;
42742;SDS011;28397;44.552;-0.848;2022-11-03T09:55:23;5.25;;;3.20;;
42742;SDS011;28397;44.552;-0.848;2022-11-03T09:58:00;6.25;;;3.30;;
42742;SDS011;28397;44.552;-0.848;2022-11-03T10:00:33;4.88;;;2.97;;
42742;SDS011;28397;44.552;-0.848;2022-11-03T10:02:58;5.20;;;3.40;;
42742;SDS011;28397;44.552;-0.848;2022-11-03T10:05:28;5.15;;;3.75;;
42742;SDS011;28397;44.552;-0.848;2022-11-03T10:08:02;6.82;;;4.57;;
42742;SDS011;28397;44.552;-0.848;2022-11-03T10:10:30;7.72;;;5.97;;
42742;SDS011;28397;44.552;-0.848;2022-11-03T10:12:57;8.00;;;4.53;;
42742;SDS011;28397;44.552;-0.848;2022-11-03T10:15:24;7.05;;;3.80;;
42742;SDS011;28397;44.552;-0.848;2022-11-03T10:17:51;5.03;;;4.13;;
42742;SDS011;28397;44.552;-0.848;2022-11-03T10:20:19;4.53;;;3.30;;
42742;SDS011;28397;44.552;-0.848;2022-11-03T10:22:46;6.28;;;3.45;;
42742;SDS011;28397;44.552;-0.848;2022-11-03T10:25:33;7.45;;;3.30;;
42742;SDS011;28397;44.552;-0.848;2022-11-03T10:28:24;4.78;;;3.47;;
42742;SDS011;28397;44.552;-0.848;2022-11-03T10:33:49;4.03;;;2.45;;
42742;SDS011;28397;44.552;-0.848;2022-11-03T10:38:41;6.55;;;3.58;;
42742;SDS011;28397;44.552;-0.848;2022-11-03T10:43:38;22.40;;;20.55;;
42742;SDS011;28397;44.552;-0.848;2022-11-03T10:46:15;7.70;;;6.93;;
42742;SDS011;28397;44.552;-0.848;2022-11-03T10:48:43;6.00;;;3.30;;
42742;SDS011;28397;44.552;-0.848;2022-11-03T10:51:25;8.65;;;3.88;;
42742;SDS011;28397;44.552;-0.848;2022-11-03T10:53:50;8.75;;;4.50;;
42742;SDS011;28397;44.552;-0.848;2022-11-03T10:56:16;6.72;;;2.40;;
42742;SDS011;28397;44.552;-0.848;2022-11-03T10:58:42;9.25;;;2.63;;
42742;SDS011;28397;44.552;-0.848;2022-11-03T11:01:08;7.72;;;4.97;;
42742;SDS011;28397;44.552;-0.848;2022-11-03T11:03:37;9.57;;;4.72;;
42742;SDS011;28397;44.552;-0.848;2022-11-03T11:06:15;8.25;;;4.57;;
42742;SDS011;28397;44.552;-0.848;2022-11-03T11:08:48;9.88;;;5.10;;
42742;SDS011;28397;44.552;-0.848;2022-11-03T11:11:16;11.07;;;6.97;;
42742;SDS011;28397;44.552;-0.848;2022-11-03T11:13:42;11.40;;;2.55;;
42742;SDS011;28397;44.552;-0.848;2022-11-03T11:19:11;15.60;;;9.18;;
42742;SDS011;28397;44.552;-0.848;2022-11-03T11:24:03;13.57;;;8.57;;
42742;SDS011;28397;44.552;-0.848;2022-11-03T11:26:33;10.50;;;7.47;;
42742;SDS011;28397;44.552;-0.848;2022-11-03T11:31:35;7.90;;;3.08;;
42742;SDS011;28397;44.552;-0.848;2022-11-03T11:36:33;6.72;;;1.90;;
42742;SDS011;28397;44.552;-0.848;2022-11-03T11:50:01;12.95;;;10.80;;
42742;SDS011;28397;44.552;-0.848;2022-11-03T11:52:41;8.40;;;4.75;;
42742;SDS011;28397;44.552;-0.848;2022-11-03T11:57:46;14.40;;;9.45;;
42742;SDS011;28397;44.552;-0.848;2022-11-03T12:02:46;12.57;;;7.55;;
42742;SDS011;28397;44.552;-0.848;2022-11-03T12:05:25;9.60;;;4.70;;
42742;SDS011;28397;44.552;-0.848;2022-11-03T12:07:57;11.43;;;6.47;;
42742;SDS011;28397;44.552;-0.848;2022-11-03T12:10:24;13.05;;;6.60;;
42742;SDS011;28397;44.552;-0.848;2022-11-03T12:12:56;10.85;;;3.90;;
42742;SDS011;28397;44.552;-0.848;2022-11-03T12:18:35;18.77;;;8.85;;
42742;SDS011;28397;44.552;-0.848;2022-11-03T12:21:05;11.50;;;4.72;;
42742;SDS011;28397;44.552;-0.848;2022-11-03T12:23:33;8.80;;;4.30;;
42742;SDS011;28397;44.552;-0.848;2022-11-03T12:26:39;10.32;;;5.90;;
42742;SDS011;28397;44.552;-0.848;2022-11-03T12:28:58;18.17;;;9.88;;
42742;SDS011;28397;44.552;-0.848;2022-11-03T12:31:23;15.10;;;8.55;;
42742;SDS011;28397;44.552;-0.848;2022-11-03T12:33:49;11.82;;;3.88;;
42742;SDS011;28397;44.552;-0.848;2022-11-03T12:36:15;11.52;;;5.75;;
42742;SDS011;28397;44.552;-0.848;2022-11-03T12:38:41;11.65;;;5.32;;
42742;SDS011;28397;44.552;-0.848;2022-11-03T12:41:07;8.75;;;3.72;;
42742;SDS011;28397;44.552;-0.848;2022-11-03T12:43:50;8.35;;;4.65;;
42742;SDS011;28397;44.552;-0.848;2022-11-03T12:46:16;13.63;;;7.00;;
42742;SDS011;28397;44.552;-0.848;2022-11-03T12:48:44;9.52;;;4.82;;
42742;SDS011;28397;44.552;-0.848;2022-11-03T12:51:15;9.40;;;5.68;;
42742;SDS011;28397;44.552;-0.848;2022-11-03T12:53:42;11.65;;;5.10;;
42742;SDS011;28397;44.552;-0.848;2022-11-03T12:56:09;11.00;;;6.00;;
42742;SDS011;28397;44.552;-0.848;2022-11-03T12:58:35;8.23;;;3.17;;
42742;SDS011;28397;44.552;-0.848;2022-11-03T13:01:01;15.32;;;3.10;;
42742;SDS011;28397;44.552;-0.848;2022-11-03T13:03:27;14.75;;;8.68;;
42742;SDS011;28397;44.552;-0.848;2022-11-03T13:05:53;14.68;;;5.50;;
42742;SDS011;28397;44.552;-0.848;2022-11-03T13:08:19;20.52;;;11.68;;
42742;SDS011;28397;44.552;-0.848;2022-11-03T13:10:45;11.85;;;3.60;;
42742;SDS011;28397;44.552;-0.848;2022-11-03T13:13:11;14.70;;;5.63;;
42742;SDS011;28397;44.552;-0.848;2022-11-03T13:15:36;24.90;;;15.40;;
42742;SDS011;28397;44.552;-0.848;2022-11-03T13:18:03;18.10;;;8.35;;
42742;SDS011;28397;44.552;-0.848;2022-11-03T13:20:32;18.17;;;5.72;;
42742;SDS011;28397;44.552;-0.848;2022-11-03T13:22:58;12.77;;;3.60;;
42742;SDS011;28397;44.552;-0.848;2022-11-03T13:25:24;23.90;;;11.52;;
42742;SDS011;28397;44.552;-0.848;2022-11-03T13:27:51;16.77;;;5.35;;
42742;SDS011;28397;44.552;-0.848;2022-11-03T13:30:20;21.50;;;13.00;;
42742;SDS011;28397;44.552;-0.848;2022-11-03T13:32:47;16.20;;;4.93;;
42742;SDS011;28397;44.552;-0.848;2022-11-03T13:35:13;12.35;;;3.53;;
42742;SDS011;28397;44.552;-0.848;2022-11-03T13:37:38;17.00;;;4.00;;
42742;SDS011;28397;44.552;-0.848;2022-11-03T13:40:04;11.57;;;3.20;;
42742;SDS011;28397;44.552;-0.848;2022-11-03T13:42:31;18.88;;;3.65;;
42742;SDS011;28397;44.552;-0.848;2022-11-03T13:44:56;12.45;;;3.40;;
42742;SDS011;28397;44.552;-0.848;2022-11-03T13:47:22;10.30;;;2.70;;
42742;SDS011;28397;44.552;-0.848;2022-11-03T13:49:48;10.27;;;2.75;;
42742;SDS011;28397;44.552;-0.848;2022-11-03T13:52:16;11.45;;;2.28;;
42742;SDS011;28397;44.552;-0.848;2022-11-03T13:54:43;11.80;;;2.40;;
42742;SDS011;28397;44.552;-0.848;2022-11-03T13:57:09;13.65;;;2.53;;
42742;SDS011;28397;44.552;-0.848;2022-11-03T13:59:34;9.20;;;2.33;;
42742;SDS011;28397;44.552;-0.848;2022-11-03T14:02:00;10.98;;;2.25;;
42742;SDS011;28397;44.552;-0.848;2022-11-03T14:04:27;12.95;;;2.80;;
42742;SDS011;28397;44.552;-0.848;2022-11-03T14:06:52;11.52;;;2.67;;
42742;SDS011;28397;44.552;-0.848;2022-11-03T14:09:18;8.90;;;2.30;;
42742;SDS011;28397;44.552;-0.848;2022-11-03T14:11:44;8.45;;;2.30;;
42742;SDS011;28397;44.552;-0.848;2022-11-03T14:14:28;10.57;;;2.20;;
42742;SDS011;28397;44.552;-0.848;2022-11-03T14:16:54;7.53;;;1.90;;
42742;SDS011;28397;44.552;-0.848;2022-11-03T14:19:20;8.88;;;2.03;;
42742;SDS011;28397;44.552;-0.848;2022-11-03T14:21:47;7.38;;;1.90;;
42742;SDS011;28397;44.552;-0.848;2022-11-03T14:24:14;9.02;;;2.25;;
42742;SDS011;28397;44.552;-0.848;2022-11-03T14:26:39;7.93;;;2.13;;
42742;SDS011;28397;44.552;-0.848;2022-11-03T14:29:05;9.13;;;1.90;;
42742;SDS011;28397;44.552;-0.848;2022-11-03T14:31:31;9.02;;;2.30;;
42742;SDS011;28397;44.552;-0.848;2022-11-03T14:33:57;7.90;;;2.05;;
42742;SDS011;28397;44.552;-0.848;2022-11-03T14:36:23;7.88;;;2.47;;
42742;SDS011;28397;44.552;-0.848;2022-11-03T14:38:49;8.52;;;1.98;;
42742;SDS011;28397;44.552;-0.848;2022-11-03T14:41:15;7.18;;;2.05;;
42742;SDS011;28397;44.552;-0.848;2022-11-03T14:43:59;9.38;;;1.92;;
42742;SDS011;28397;44.552;-0.848;2022-11-03T14:46:26;7.82;;;2.10;;
42742;SDS011;28397;44.552;-0.848;2022-11-03T14:48:52;7.93;;;2.10;;
42742;SDS011;28397;44.552;-0.848;2022-11-03T14:51:18;9.75;;;2.28;;
42742;SDS011;28397;44.552;-0.848;2022-11-03T14:53:44;6.78;;;1.75;;
42742;SDS011;28397;44.552;-0.848;2022-11-03T14:56:10;9.15;;;2.60;;
42742;SDS011;28397;44.552;-0.848;2022-11-03T14:58:36;8.48;;;2.00;;
42742;SDS011;28397;44.552;-0.848;2022-11-03T15:01:02;11.13;;;1.95;;
42742;SDS011;28397;44.552;-0.848;2022-11-03T15:03:28;11.18;;;2.33;;
42742;SDS011;28397;44.552;-0.848;2022-11-03T15:05:54;9.82;;;2.20;;
42742;SDS011;28397;44.552;-0.848;2022-11-03T15:08:20;9.45;;;2.03;;
42742;SDS011;28397;44.552;-0.848;2022-11-03T15:10:46;10.48;;;2.40;;
42742;SDS011;28397;44.552;-0.848;2022-11-03T15:13:12;9.52;;;2.33;;
42742;SDS011;28397;44.552;-0.848;2022-11-03T15:15:38;8.05;;;2.17;;
42742;SDS011;28397;44.552;-0.848;2022-11-03T15:18:07;15.88;;;3.53;;
42742;SDS011;28397;44.552;-0.848;2022-11-03T15:20:33;13.43;;;4.50;;
42742;SDS011;28397;44.552;-0.848;2022-11-03T15:23:03;14.07;;;3.10;;
42742;SDS011;28397;44.552;-0.848;2022-11-03T15:25:30;10.32;;;2.38;;
42742;SDS011;28397;44.552;-0.848;2022-11-03T15:27:56;15.52;;;3.08;;
42742;SDS011;28397;44.552;-0.848;2022-11-03T15:30:22;13.32;;;2.50;;
42742;SDS011;28397;44.552;-0.848;2022-11-03T15:32:47;9.98;;;2.72;;
42742;SDS011;28397;44.552;-0.848;2022-11-03T15:35:13;10.70;;;2.63;;
42742;SDS011;28397;44.552;-0.848;2022-11-03T15:37:39;13.43;;;2.80;;
42742;SDS011;28397;44.552;-0.848;2022-11-03T15:40:06;10.40;;;2.53;;
42742;SDS011;28397;44.552;-0.848;2022-11-03T15:42:33;12.88;;;2.95;;
42742;SDS011;28397;44.552;-0.848;2022-11-03T15:44:59;14.23;;;3.55;;
42742;SDS011;28397;44.552;-0.848;2022-11-03T15:47:24;13.07;;;3.08;;
42742;SDS011;28397;44.552;-0.848;2022-11-03T15:49:50;14.05;;;3.03;;
42742;SDS011;28397;44.552;-0.848;2022-11-03T15:52:16;17.75;;;5.90;;
42742;SDS011;28397;44.552;-0.848;2022-11-03T15:54:41;16.67;;;3.80;;
42742;SDS011;28397;44.552;-0.848;2022-11-03T15:57:07;18.75;;;3.70;;
42742;SDS011;28397;44.552;-0.848;2022-11-03T15:59:34;17.13;;;3.33;;
42742;SDS011;28397;44.552;-0.848;2022-11-03T16:01:59;14.55;;;3.30;;
42742;SDS011;28397;44.552;-0.848;2022-11-03T16:04:25;13.98;;;3.92;;
42742;SDS011;28397;44.552;-0.848;2022-11-03T16:06:51;16.08;;;4.25;;
42742;SDS011;28397;44.552;-0.848;2022-11-03T16:09:17;21.85;;;5.15;;
42742;SDS011;28397;44.552;-0.848;2022-11-03T16:11:42;19.65;;;4.35;;
42742;SDS011;28397;44.552;-0.848;2022-11-03T16:14:08;19.77;;;3.95;;
42742;SDS011;28397;44.552;-0.848;2022-11-03T16:16:34;20.00;;;4.88;;
42742;SDS011;28397;44.552;-0.848;2022-11-03T16:19:00;22.20;;;4.65;;